sensor_id;sensor_type;location;lat;lon;timestamp;temperature;humidity
73322;DHT22;61549;37.044;22.128;2023-04-15T00:01:43;20.30;68.40
73322;DHT22;61549;37.044;22.128;2023-04-15T00:04:09;20.20;68.50
73322;DHT22;61549;37.044;22.128;2023-04-15T00:06:36;20.20;68.60
73322;DHT22;61549;37.044;22.128;2023-04-15T00:09:02;20.20;68.90
73322;DHT22;61549;37.044;22.128;2023-04-15T00:11:28;20.10;69.10
73322;DHT22;61549;37.044;22.128;2023-04-15T00:13:54;20.10;69.00
73322;DHT22;61549;37.044;22.128;2023-04-15T00:16:19;20.10;69.10
73322;DHT22;61549;37.044;22.128;2023-04-15T00:18:45;20.20;68.90
73322;DHT22;61549;37.044;22.128;2023-04-15T00:21:19;20.10;68.50
73322;DHT22;61549;37.044;22.128;2023-04-15T00:23:45;20.10;68.40
73322;DHT22;61549;37.044;22.128;2023-04-15T00:26:16;20.00;67.90
73322;DHT22;61549;37.044;22.128;2023-04-15T00:28:43;20.00;67.40
73322;DHT22;61549;37.044;22.128;2023-04-15T00:31:22;20.00;67.50
73322;DHT22;61549;37.044;22.128;2023-04-15T00:33:47;20.00;67.20
73322;DHT22;61549;37.044;22.128;2023-04-15T00:36:14;19.90;67.00
73322;DHT22;61549;37.044;22.128;2023-04-15T00:38:40;19.90;66.60
73322;DHT22;61549;37.044;22.128;2023-04-15T00:41:06;19.90;65.90
73322;DHT22;61549;37.044;22.128;2023-04-15T00:43:33;19.90;65.30
73322;DHT22;61549;37.044;22.128;2023-04-15T00:46:00;19.70;65.00
73322;DHT22;61549;37.044;22.128;2023-04-15T00:48:28;19.70;64.70
73322;DHT22;61549;37.044;22.128;2023-04-15T00:50:54;19.60;64.40
73322;DHT22;61549;37.044;22.128;2023-04-15T00:53:20;19.60;64.40
73322;DHT22;61549;37.044;22.128;2023-04-15T00:55:46;19.50;64.20
73322;DHT22;61549;37.044;22.128;2023-04-15T00:58:12;19.50;64.20
73322;DHT22;61549;37.044;22.128;2023-04-15T01:00:37;19.40;63.90
73322;DHT22;61549;37.044;22.128;2023-04-15T01:03:03;19.30;63.00
73322;DHT22;61549;37.044;22.128;2023-04-15T01:05:30;19.30;62.00
73322;DHT22;61549;37.044;22.128;2023-04-15T01:07:56;19.30;61.70
73322;DHT22;61549;37.044;22.128;2023-04-15T01:10:22;19.20;61.10
73322;DHT22;61549;37.044;22.128;2023-04-15T01:12:48;19.20;61.30
73322;DHT22;61549;37.044;22.128;2023-04-15T01:15:14;19.20;61.50
73322;DHT22;61549;37.044;22.128;2023-04-15T01:17:40;19.20;61.20
73322;DHT22;61549;37.044;22.128;2023-04-15T01:20:19;19.10;61.10
73322;DHT22;61549;37.044;22.128;2023-04-15T01:22:47;19.10;60.40
73322;DHT22;61549;37.044;22.128;2023-04-15T01:25:18;19.00;59.90
73322;DHT22;61549;37.044;22.128;2023-04-15T01:27:44;19.00;60.50
73322;DHT22;61549;37.044;22.128;2023-04-15T01:30:10;19.00;59.90
73322;DHT22;61549;37.044;22.128;2023-04-15T01:32:37;18.90;59.40
73322;DHT22;61549;37.044;22.128;2023-04-15T01:35:06;18.80;59.40
73322;DHT22;61549;37.044;22.128;2023-04-15T01:37:32;18.80;58.60
73322;DHT22;61549;37.044;22.128;2023-04-15T01:39:58;18.70;58.60
73322;DHT22;61549;37.044;22.128;2023-04-15T01:42:24;18.60;58.80
73322;DHT22;61549;37.044;22.128;2023-04-15T01:45:17;18.60;58.80
73322;DHT22;61549;37.044;22.128;2023-04-15T01:47:43;18.50;57.60
73322;DHT22;61549;37.044;22.128;2023-04-15T01:50:09;18.40;56.10
73322;DHT22;61549;37.044;22.128;2023-04-15T01:52:35;18.40;55.90
73322;DHT22;61549;37.044;22.128;2023-04-15T01:55:00;18.40;55.10
73322;DHT22;61549;37.044;22.128;2023-04-15T01:57:26;18.40;54.40
73322;DHT22;61549;37.044;22.128;2023-04-15T01:59:52;18.30;54.30
73322;DHT22;61549;37.044;22.128;2023-04-15T02:02:18;18.30;54.70
73322;DHT22;61549;37.044;22.128;2023-04-15T02:04:44;18.20;54.80
73322;DHT22;61549;37.044;22.128;2023-04-15T02:07:12;18.10;53.80
73322;DHT22;61549;37.044;22.128;2023-04-15T02:09:37;18.00;54.30
73322;DHT22;61549;37.044;22.128;2023-04-15T02:12:03;17.90;54.50
73322;DHT22;61549;37.044;22.128;2023-04-15T02:14:29;17.90;54.40
73322;DHT22;61549;37.044;22.128;2023-04-15T02:17:02;17.80;54.50
73322;DHT22;61549;37.044;22.128;2023-04-15T02:19:35;17.70;54.50
73322;DHT22;61549;37.044;22.128;2023-04-15T02:22:01;17.70;53.80
73322;DHT22;61549;37.044;22.128;2023-04-15T02:24:28;17.70;54.00
73322;DHT22;61549;37.044;22.128;2023-04-15T02:27:27;17.60;54.00
73322;DHT22;61549;37.044;22.128;2023-04-15T02:29:53;17.70;53.90
73322;DHT22;61549;37.044;22.128;2023-04-15T02:32:19;17.60;54.40
73322;DHT22;61549;37.044;22.128;2023-04-15T02:34:48;17.60;53.80
73322;DHT22;61549;37.044;22.128;2023-04-15T02:37:14;17.60;53.30
73322;DHT22;61549;37.044;22.128;2023-04-15T02:39:40;17.60;52.20
73322;DHT22;61549;37.044;22.128;2023-04-15T02:42:06;17.60;52.30
73322;DHT22;61549;37.044;22.128;2023-04-15T02:44:32;17.50;52.50
73322;DHT22;61549;37.044;22.128;2023-04-15T02:47:03;17.50;52.80
73322;DHT22;61549;37.044;22.128;2023-04-15T02:49:31;17.40;53.10
73322;DHT22;61549;37.044;22.128;2023-04-15T02:51:57;17.40;53.00
73322;DHT22;61549;37.044;22.128;2023-04-15T02:54:25;17.30;53.00
73322;DHT22;61549;37.044;22.128;2023-04-15T02:56:53;17.20;53.30
73322;DHT22;61549;37.044;22.128;2023-04-15T02:59:21;17.20;53.60
73322;DHT22;61549;37.044;22.128;2023-04-15T03:01:46;17.10;53.30
73322;DHT22;61549;37.044;22.128;2023-04-15T03:04:12;17.00;53.40
73322;DHT22;61549;37.044;22.128;2023-04-15T03:06:38;16.90;53.20
73322;DHT22;61549;37.044;22.128;2023-04-15T03:09:04;16.90;54.00
73322;DHT22;61549;37.044;22.128;2023-04-15T03:11:31;16.90;54.30
73322;DHT22;61549;37.044;22.128;2023-04-15T03:13:57;16.80;54.50
73322;DHT22;61549;37.044;22.128;2023-04-15T03:16:23;16.80;53.70
73322;DHT22;61549;37.044;22.128;2023-04-15T03:18:50;16.80;53.30
73322;DHT22;61549;37.044;22.128;2023-04-15T03:21:16;16.80;53.00
73322;DHT22;61549;37.044;22.128;2023-04-15T03:23:42;16.80;52.40
73322;DHT22;61549;37.044;22.128;2023-04-15T03:26:08;16.80;51.50
73322;DHT22;61549;37.044;22.128;2023-04-15T03:28:34;16.90;51.20
73322;DHT22;61549;37.044;22.128;2023-04-15T03:31:00;16.90;50.70
73322;DHT22;61549;37.044;22.128;2023-04-15T03:33:26;16.90;50.20
73322;DHT22;61549;37.044;22.128;2023-04-15T03:35:52;17.00;50.60
73322;DHT22;61549;37.044;22.128;2023-04-15T03:38:18;17.10;50.70
73322;DHT22;61549;37.044;22.128;2023-04-15T03:40:45;17.20;50.60
73322;DHT22;61549;37.044;22.128;2023-04-15T03:43:11;17.20;49.40
73322;DHT22;61549;37.044;22.128;2023-04-15T03:45:37;17.20;49.30
73322;DHT22;61549;37.044;22.128;2023-04-15T03:48:03;17.30;49.20
73322;DHT22;61549;37.044;22.128;2023-04-15T03:50:29;17.30;50.60
73322;DHT22;61549;37.044;22.128;2023-04-15T03:52:55;17.40;52.10
73322;DHT22;61549;37.044;22.128;2023-04-15T03:55:26;17.30;51.60
73322;DHT22;61549;37.044;22.128;2023-04-15T03:57:51;17.30;51.90
73322;DHT22;61549;37.044;22.128;2023-04-15T04:00:36;17.20;51.50
73322;DHT22;61549;37.044;22.128;2023-04-15T04:03:02;17.20;51.60
73322;DHT22;61549;37.044;22.128;2023-04-15T04:05:28;17.10;52.10
73322;DHT22;61549;37.044;22.128;2023-04-15T04:07:54;17.10;50.90
73322;DHT22;61549;37.044;22.128;2023-04-15T04:10:20;17.00;48.30
73322;DHT22;61549;37.044;22.128;2023-04-15T04:12:46;17.10;48.50
73322;DHT22;61549;37.044;22.128;2023-04-15T04:15:12;17.10;47.70
73322;DHT22;61549;37.044;22.128;2023-04-15T04:17:38;17.20;47.60
73322;DHT22;61549;37.044;22.128;2023-04-15T04:20:04;17.30;47.10
73322;DHT22;61549;37.044;22.128;2023-04-15T04:22:30;17.40;47.80
73322;DHT22;61549;37.044;22.128;2023-04-15T04:24:56;17.50;47.80
73322;DHT22;61549;37.044;22.128;2023-04-15T04:27:24;17.60;49.20
73322;DHT22;61549;37.044;22.128;2023-04-15T04:33:12;17.60;46.70
73322;DHT22;61549;37.044;22.128;2023-04-15T04:35:38;17.80;48.40
73322;DHT22;61549;37.044;22.128;2023-04-15T04:38:04;17.80;49.30
73322;DHT22;61549;37.044;22.128;2023-04-15T04:40:30;17.90;50.80
73322;DHT22;61549;37.044;22.128;2023-04-15T04:42:56;17.80;47.00
73322;DHT22;61549;37.044;22.128;2023-04-15T04:45:22;17.80;49.20
73322;DHT22;61549;37.044;22.128;2023-04-15T04:47:48;17.80;47.90
73322;DHT22;61549;37.044;22.128;2023-04-15T04:50:13;17.80;45.60
73322;DHT22;61549;37.044;22.128;2023-04-15T04:52:39;17.80;47.90
73322;DHT22;61549;37.044;22.128;2023-04-15T04:55:05;17.80;48.90
73322;DHT22;61549;37.044;22.128;2023-04-15T04:57:33;17.90;50.20
73322;DHT22;61549;37.044;22.128;2023-04-15T05:00:01;17.90;51.90
73322;DHT22;61549;37.044;22.128;2023-04-15T05:02:29;17.80;51.30
73322;DHT22;61549;37.044;22.128;2023-04-15T05:04:58;17.70;51.10
73322;DHT22;61549;37.044;22.128;2023-04-15T05:07:24;17.80;51.30
73322;DHT22;61549;37.044;22.128;2023-04-15T05:09:50;17.70;52.20
73322;DHT22;61549;37.044;22.128;2023-04-15T05:12:16;17.70;51.40
73322;DHT22;61549;37.044;22.128;2023-04-15T05:14:43;17.70;52.00
73322;DHT22;61549;37.044;22.128;2023-04-15T05:17:09;17.80;52.80
73322;DHT22;61549;37.044;22.128;2023-04-15T05:19:36;17.70;54.00
73322;DHT22;61549;37.044;22.128;2023-04-15T05:22:04;17.60;52.60
73322;DHT22;61549;37.044;22.128;2023-04-15T05:24:30;17.60;52.70
73322;DHT22;61549;37.044;22.128;2023-04-15T05:26:56;17.70;53.20
73322;DHT22;61549;37.044;22.128;2023-04-15T05:29:22;17.70;53.60
73322;DHT22;61549;37.044;22.128;2023-04-15T05:31:48;17.70;53.70
73322;DHT22;61549;37.044;22.128;2023-04-15T05:34:14;17.70;55.00
73322;DHT22;61549;37.044;22.128;2023-04-15T05:36:41;17.80;55.10
73322;DHT22;61549;37.044;22.128;2023-04-15T05:39:07;17.80;55.80
73322;DHT22;61549;37.044;22.128;2023-04-15T05:41:33;17.80;55.70
73322;DHT22;61549;37.044;22.128;2023-04-15T05:44:01;17.90;56.10
73322;DHT22;61549;37.044;22.128;2023-04-15T05:46:27;17.90;56.90
73322;DHT22;61549;37.044;22.128;2023-04-15T05:48:53;18.00;56.80
73322;DHT22;61549;37.044;22.128;2023-04-15T05:51:18;18.00;56.50
73322;DHT22;61549;37.044;22.128;2023-04-15T05:53:45;18.00;53.20
73322;DHT22;61549;37.044;22.128;2023-04-15T05:56:11;18.10;54.00
73322;DHT22;61549;37.044;22.128;2023-04-15T05:58:37;18.20;50.40
73322;DHT22;61549;37.044;22.128;2023-04-15T06:01:03;18.20;49.70
73322;DHT22;61549;37.044;22.128;2023-04-15T06:03:29;18.20;47.80
73322;DHT22;61549;37.044;22.128;2023-04-15T06:05:55;18.20;48.00
73322;DHT22;61549;37.044;22.128;2023-04-15T06:08:21;18.30;48.90
73322;DHT22;61549;37.044;22.128;2023-04-15T06:10:47;18.10;49.40
73322;DHT22;61549;37.044;22.128;2023-04-15T06:13:13;18.10;49.50
73322;DHT22;61549;37.044;22.128;2023-04-15T06:15:38;18.10;49.60
73322;DHT22;61549;37.044;22.128;2023-04-15T06:18:07;18.30;50.10
73322;DHT22;61549;37.044;22.128;2023-04-15T06:20:33;18.50;49.40
73322;DHT22;61549;37.044;22.128;2023-04-15T06:22:59;18.70;47.70
73322;DHT22;61549;37.044;22.128;2023-04-15T06:25:25;18.50;48.00
73322;DHT22;61549;37.044;22.128;2023-04-15T06:27:51;18.50;47.70
73322;DHT22;61549;37.044;22.128;2023-04-15T06:30:17;18.40;48.20
73322;DHT22;61549;37.044;22.128;2023-04-15T06:32:43;18.30;47.60
73322;DHT22;61549;37.044;22.128;2023-04-15T06:35:08;18.50;47.60
73322;DHT22;61549;37.044;22.128;2023-04-15T06:37:34;18.80;46.70
73322;DHT22;61549;37.044;22.128;2023-04-15T06:40:01;19.00;46.80
73322;DHT22;61549;37.044;22.128;2023-04-15T06:42:27;19.20;47.60
73322;DHT22;61549;37.044;22.128;2023-04-15T06:44:52;19.50;48.20
73322;DHT22;61549;37.044;22.128;2023-04-15T06:47:18;19.90;47.10
73322;DHT22;61549;37.044;22.128;2023-04-15T06:49:44;20.10;46.60
73322;DHT22;61549;37.044;22.128;2023-04-15T06:52:19;20.20;45.10
73322;DHT22;61549;37.044;22.128;2023-04-15T06:54:45;20.40;44.40
73322;DHT22;61549;37.044;22.128;2023-04-15T06:57:11;20.60;43.00
73322;DHT22;61549;37.044;22.128;2023-04-15T06:59:37;20.70;42.90
73322;DHT22;61549;37.044;22.128;2023-04-15T07:02:03;20.80;43.10
73322;DHT22;61549;37.044;22.128;2023-04-15T07:04:35;20.90;42.50
73322;DHT22;61549;37.044;22.128;2023-04-15T07:07:01;21.10;42.50
73322;DHT22;61549;37.044;22.128;2023-04-15T07:09:27;21.30;41.10
73322;DHT22;61549;37.044;22.128;2023-04-15T07:11:52;21.50;40.80
73322;DHT22;61549;37.044;22.128;2023-04-15T07:14:18;21.60;40.30
73322;DHT22;61549;37.044;22.128;2023-04-15T07:16:44;21.80;40.00
73322;DHT22;61549;37.044;22.128;2023-04-15T07:19:10;21.90;39.30
73322;DHT22;61549;37.044;22.128;2023-04-15T07:21:36;21.70;39.20
73322;DHT22;61549;37.044;22.128;2023-04-15T07:24:02;21.70;39.70
73322;DHT22;61549;37.044;22.128;2023-04-15T07:26:28;21.70;39.50
73322;DHT22;61549;37.044;22.128;2023-04-15T07:28:54;21.50;38.80
73322;DHT22;61549;37.044;22.128;2023-04-15T07:31:20;21.60;40.40
73322;DHT22;61549;37.044;22.128;2023-04-15T07:33:46;21.80;39.40
73322;DHT22;61549;37.044;22.128;2023-04-15T07:36:12;22.00;40.40
73322;DHT22;61549;37.044;22.128;2023-04-15T07:38:38;22.20;38.80
73322;DHT22;61549;37.044;22.128;2023-04-15T07:41:04;22.30;38.80
73322;DHT22;61549;37.044;22.128;2023-04-15T07:43:30;22.30;39.00
73322;DHT22;61549;37.044;22.128;2023-04-15T07:45:56;22.20;37.80
73322;DHT22;61549;37.044;22.128;2023-04-15T07:48:22;22.30;38.40
73322;DHT22;61549;37.044;22.128;2023-04-15T07:50:48;22.40;39.20
73322;DHT22;61549;37.044;22.128;2023-04-15T07:53:13;22.50;38.00
73322;DHT22;61549;37.044;22.128;2023-04-15T07:55:39;22.70;35.90
73322;DHT22;61549;37.044;22.128;2023-04-15T07:58:05;22.80;35.90
73322;DHT22;61549;37.044;22.128;2023-04-15T08:00:31;22.80;37.00
73322;DHT22;61549;37.044;22.128;2023-04-15T08:02:57;22.80;36.40
73322;DHT22;61549;37.044;22.128;2023-04-15T08:05:29;22.60;36.20
73322;DHT22;61549;37.044;22.128;2023-04-15T08:07:55;22.60;35.60
73322;DHT22;61549;37.044;22.128;2023-04-15T08:10:21;22.30;36.10
73322;DHT22;61549;37.044;22.128;2023-04-15T08:12:47;22.30;37.60
73322;DHT22;61549;37.044;22.128;2023-04-15T08:15:14;22.50;36.60
73322;DHT22;61549;37.044;22.128;2023-04-15T08:17:39;22.40;33.80
73322;DHT22;61549;37.044;22.128;2023-04-15T08:20:06;22.50;36.00
73322;DHT22;61549;37.044;22.128;2023-04-15T08:22:32;22.40;36.60
73322;DHT22;61549;37.044;22.128;2023-04-15T08:24:57;22.20;36.50
73322;DHT22;61549;37.044;22.128;2023-04-15T08:27:24;22.20;35.40
73322;DHT22;61549;37.044;22.128;2023-04-15T08:29:49;22.20;35.30
73322;DHT22;61549;37.044;22.128;2023-04-15T08:32:15;22.20;34.90
73322;DHT22;61549;37.044;22.128;2023-04-15T08:34:41;22.20;35.30
73322;DHT22;61549;37.044;22.128;2023-04-15T08:37:07;22.20;35.00
73322;DHT22;61549;37.044;22.128;2023-04-15T08:39:47;22.40;35.80
73322;DHT22;61549;37.044;22.128;2023-04-15T08:42:16;22.70;36.80
73322;DHT22;61549;37.044;22.128;2023-04-15T08:44:44;22.90;35.60
73322;DHT22;61549;37.044;22.128;2023-04-15T08:47:12;22.70;35.30
73322;DHT22;61549;37.044;22.128;2023-04-15T08:49:42;22.30;37.10
73322;DHT22;61549;37.044;22.128;2023-04-15T08:52:08;22.20;36.60
73322;DHT22;61549;37.044;22.128;2023-04-15T08:54:34;22.10;35.80
73322;DHT22;61549;37.044;22.128;2023-04-15T08:57:01;22.30;34.50
73322;DHT22;61549;37.044;22.128;2023-04-15T08:59:31;22.70;35.10
73322;DHT22;61549;37.044;22.128;2023-04-15T09:01:57;23.00;33.60
73322;DHT22;61549;37.044;22.128;2023-04-15T09:04:23;23.20;34.70
73322;DHT22;61549;37.044;22.128;2023-04-15T09:06:49;23.40;34.40
73322;DHT22;61549;37.044;22.128;2023-04-15T09:09:22;23.30;32.20
73322;DHT22;61549;37.044;22.128;2023-04-15T09:11:48;23.50;32.20
73322;DHT22;61549;37.044;22.128;2023-04-15T09:14:15;23.40;31.80
73322;DHT22;61549;37.044;22.128;2023-04-15T09:17:03;23.50;34.10
73322;DHT22;61549;37.044;22.128;2023-04-15T09:19:30;23.80;32.70
73322;DHT22;61549;37.044;22.128;2023-04-15T09:21:57;23.90;32.00
73322;DHT22;61549;37.044;22.128;2023-04-15T09:24:23;24.00;33.30
73322;DHT22;61549;37.044;22.128;2023-04-15T09:26:53;24.20;32.60
73322;DHT22;61549;37.044;22.128;2023-04-15T09:29:24;24.00;30.60
73322;DHT22;61549;37.044;22.128;2023-04-15T09:31:51;23.70;30.30
73322;DHT22;61549;37.044;22.128;2023-04-15T09:34:18;23.80;31.50
73322;DHT22;61549;37.044;22.128;2023-04-15T09:36:52;23.80;32.20
73322;DHT22;61549;37.044;22.128;2023-04-15T09:39:18;24.00;34.60
73322;DHT22;61549;37.044;22.128;2023-04-15T09:41:44;24.30;33.50
73322;DHT22;61549;37.044;22.128;2023-04-15T09:44:26;24.40;30.80
73322;DHT22;61549;37.044;22.128;2023-04-15T09:46:51;24.30;29.40
73322;DHT22;61549;37.044;22.128;2023-04-15T09:49:18;24.00;30.40
73322;DHT22;61549;37.044;22.128;2023-04-15T09:51:45;24.10;29.90
73322;DHT22;61549;37.044;22.128;2023-04-15T09:54:11;24.40;30.30
73322;DHT22;61549;37.044;22.128;2023-04-15T09:56:38;24.40;30.80
73322;DHT22;61549;37.044;22.128;2023-04-15T09:59:07;24.70;32.60
73322;DHT22;61549;37.044;22.128;2023-04-15T10:01:34;24.60;29.70
73322;DHT22;61549;37.044;22.128;2023-04-15T10:04:04;24.70;29.60
73322;DHT22;61549;37.044;22.128;2023-04-15T10:06:30;24.40;29.60
73322;DHT22;61549;37.044;22.128;2023-04-15T10:08:57;24.40;29.70
73322;DHT22;61549;37.044;22.128;2023-04-15T10:11:25;24.70;31.20
73322;DHT22;61549;37.044;22.128;2023-04-15T10:14:08;24.90;31.70
73322;DHT22;61549;37.044;22.128;2023-04-15T10:16:36;25.10;30.50
73322;DHT22;61549;37.044;22.128;2023-04-15T10:19:07;25.10;32.30
73322;DHT22;61549;37.044;22.128;2023-04-15T10:21:42;25.20;30.50
73322;DHT22;61549;37.044;22.128;2023-04-15T10:24:10;25.10;30.90
73322;DHT22;61549;37.044;22.128;2023-04-15T10:26:37;25.40;31.40
73322;DHT22;61549;37.044;22.128;2023-04-15T10:29:03;25.50;30.80
73322;DHT22;61549;37.044;22.128;2023-04-15T10:31:45;25.60;30.70
73322;DHT22;61549;37.044;22.128;2023-04-15T10:34:11;25.80;31.80
73322;DHT22;61549;37.044;22.128;2023-04-15T10:36:38;26.00;29.80
73322;DHT22;61549;37.044;22.128;2023-04-15T10:42:14;26.20;31.20
73322;DHT22;61549;37.044;22.128;2023-04-15T10:44:47;26.30;31.40
73322;DHT22;61549;37.044;22.128;2023-04-15T10:47:15;26.20;34.20
73322;DHT22;61549;37.044;22.128;2023-04-15T10:49:51;25.60;35.00
73322;DHT22;61549;37.044;22.128;2023-04-15T10:52:25;25.00;34.60
73322;DHT22;61549;37.044;22.128;2023-04-15T10:55:12;24.50;37.10
73322;DHT22;61549;37.044;22.128;2023-04-15T10:57:40;23.70;37.00
73322;DHT22;61549;37.044;22.128;2023-04-15T11:00:13;23.30;37.60
73322;DHT22;61549;37.044;22.128;2023-04-15T11:05:16;23.00;41.30
73322;DHT22;61549;37.044;22.128;2023-04-15T11:07:52;22.80;38.80
73322;DHT22;61549;37.044;22.128;2023-04-15T11:15:56;22.70;36.70
73322;DHT22;61549;37.044;22.128;2023-04-15T11:18:27;22.90;36.70
73322;DHT22;61549;37.044;22.128;2023-04-15T11:21:02;23.00;33.70
73322;DHT22;61549;37.044;22.128;2023-04-15T11:23:37;22.90;33.00
73322;DHT22;61549;37.044;22.128;2023-04-15T11:26:05;22.90;33.80
73322;DHT22;61549;37.044;22.128;2023-04-15T11:28:34;23.00;35.20
73322;DHT22;61549;37.044;22.128;2023-04-15T11:33:35;23.00;33.70
73322;DHT22;61549;37.044;22.128;2023-04-15T11:36:01;23.00;36.00
73322;DHT22;61549;37.044;22.128;2023-04-15T11:38:28;23.00;36.50
73322;DHT22;61549;37.044;22.128;2023-04-15T11:40:57;22.90;36.40
73322;DHT22;61549;37.044;22.128;2023-04-15T11:43:23;22.90;36.60
73322;DHT22;61549;37.044;22.128;2023-04-15T11:45:55;23.10;36.70
73322;DHT22;61549;37.044;22.128;2023-04-15T11:48:27;23.10;35.00
73322;DHT22;61549;37.044;22.128;2023-04-15T11:51:12;22.90;35.70
73322;DHT22;61549;37.044;22.128;2023-04-15T11:56:08;22.90;37.80
73322;DHT22;61549;37.044;22.128;2023-04-15T11:58:36;23.00;36.70
73322;DHT22;61549;37.044;22.128;2023-04-15T12:01:03;23.20;35.60
73322;DHT22;61549;37.044;22.128;2023-04-15T12:03:35;23.30;35.00
73322;DHT22;61549;37.044;22.128;2023-04-15T12:13:58;23.00;38.20
73322;DHT22;61549;37.044;22.128;2023-04-15T12:16:24;22.90;36.60
73322;DHT22;61549;37.044;22.128;2023-04-15T12:18:51;22.80;36.90
73322;DHT22;61549;37.044;22.128;2023-04-15T12:21:21;22.80;36.50
73322;DHT22;61549;37.044;22.128;2023-04-15T12:23:52;22.90;37.30
73322;DHT22;61549;37.044;22.128;2023-04-15T12:26:30;22.90;37.70
73322;DHT22;61549;37.044;22.128;2023-04-15T12:29:07;23.00;36.40
73322;DHT22;61549;37.044;22.128;2023-04-15T12:31:34;23.00;36.90
73322;DHT22;61549;37.044;22.128;2023-04-15T12:34:01;23.00;35.80
73322;DHT22;61549;37.044;22.128;2023-04-15T12:36:28;23.00;36.70
73322;DHT22;61549;37.044;22.128;2023-04-15T12:38:56;23.00;36.10
73322;DHT22;61549;37.044;22.128;2023-04-15T12:41:22;22.90;35.90
73322;DHT22;61549;37.044;22.128;2023-04-15T12:43:49;23.00;35.60
73322;DHT22;61549;37.044;22.128;2023-04-15T12:46:15;23.10;35.40
73322;DHT22;61549;37.044;22.128;2023-04-15T12:48:41;23.10;35.70
73322;DHT22;61549;37.044;22.128;2023-04-15T12:51:07;23.20;36.70
73322;DHT22;61549;37.044;22.128;2023-04-15T12:53:33;23.30;36.10
73322;DHT22;61549;37.044;22.128;2023-04-15T12:55:59;23.50;35.40
73322;DHT22;61549;37.044;22.128;2023-04-15T12:58:25;23.30;34.70
73322;DHT22;61549;37.044;22.128;2023-04-15T13:00:50;23.40;34.60
73322;DHT22;61549;37.044;22.128;2023-04-15T13:03:16;23.50;34.50
73322;DHT22;61549;37.044;22.128;2023-04-15T13:05:43;23.50;35.50
73322;DHT22;61549;37.044;22.128;2023-04-15T13:08:09;23.70;34.50
73322;DHT22;61549;37.044;22.128;2023-04-15T13:10:35;23.70;34.90
73322;DHT22;61549;37.044;22.128;2023-04-15T13:13:01;23.50;34.40
73322;DHT22;61549;37.044;22.128;2023-04-15T13:15:28;23.60;35.80
73322;DHT22;61549;37.044;22.128;2023-04-15T13:17:54;23.70;35.50
73322;DHT22;61549;37.044;22.128;2023-04-15T13:20:20;23.60;35.30
73322;DHT22;61549;37.044;22.128;2023-04-15T13:22:45;23.60;35.60
73322;DHT22;61549;37.044;22.128;2023-04-15T13:25:11;23.40;35.80
73322;DHT22;61549;37.044;22.128;2023-04-15T13:27:43;23.10;36.30
73322;DHT22;61549;37.044;22.128;2023-04-15T13:30:09;23.00;36.70
73322;DHT22;61549;37.044;22.128;2023-04-15T13:32:35;23.00;36.90
73322;DHT22;61549;37.044;22.128;2023-04-15T13:35:01;23.00;38.30
73322;DHT22;61549;37.044;22.128;2023-04-15T13:37:28;22.80;39.40
73322;DHT22;61549;37.044;22.128;2023-04-15T13:39:54;22.90;39.20
73322;DHT22;61549;37.044;22.128;2023-04-15T13:42:21;23.20;38.40
73322;DHT22;61549;37.044;22.128;2023-04-15T13:44:48;23.20;38.40
73322;DHT22;61549;37.044;22.128;2023-04-15T13:47:36;23.00;40.50
73322;DHT22;61549;37.044;22.128;2023-04-15T13:50:01;22.70;40.80
73322;DHT22;61549;37.044;22.128;2023-04-15T13:52:28;22.30;41.50
73322;DHT22;61549;37.044;22.128;2023-04-15T13:54:54;22.10;42.20
73322;DHT22;61549;37.044;22.128;2023-04-15T13:57:20;21.90;42.00
73322;DHT22;61549;37.044;22.128;2023-04-15T13:59:46;21.80;42.50
73322;DHT22;61549;37.044;22.128;2023-04-15T14:02:12;22.00;43.00
73322;DHT22;61549;37.044;22.128;2023-04-15T14:04:37;22.00;43.00
73322;DHT22;61549;37.044;22.128;2023-04-15T14:07:03;22.10;43.60
73322;DHT22;61549;37.044;22.128;2023-04-15T14:09:39;22.20;42.00
73322;DHT22;61549;37.044;22.128;2023-04-15T14:12:05;22.20;41.90
73322;DHT22;61549;37.044;22.128;2023-04-15T14:14:31;22.30;40.10
73322;DHT22;61549;37.044;22.128;2023-04-15T14:16:57;22.30;39.00
73322;DHT22;61549;37.044;22.128;2023-04-15T14:19:23;22.10;39.40
73322;DHT22;61549;37.044;22.128;2023-04-15T14:21:49;22.20;40.10
73322;DHT22;61549;37.044;22.128;2023-04-15T14:24:15;22.00;39.30
73322;DHT22;61549;37.044;22.128;2023-04-15T14:29:45;22.60;38.90
73322;DHT22;61549;37.044;22.128;2023-04-15T14:32:17;22.50;38.00
73322;DHT22;61549;37.044;22.128;2023-04-15T14:34:43;22.60;38.20
73322;DHT22;61549;37.044;22.128;2023-04-15T14:37:09;22.80;37.90
73322;DHT22;61549;37.044;22.128;2023-04-15T14:39:35;22.90;37.80
73322;DHT22;61549;37.044;22.128;2023-04-15T14:42:01;22.80;38.00
73322;DHT22;61549;37.044;22.128;2023-04-15T14:44:27;22.30;37.90
73322;DHT22;61549;37.044;22.128;2023-04-15T14:46:52;22.00;38.20
73322;DHT22;61549;37.044;22.128;2023-04-15T14:49:19;21.70;38.90
73322;DHT22;61549;37.044;22.128;2023-04-15T14:51:45;21.80;39.10
73322;DHT22;61549;37.044;22.128;2023-04-15T14:54:11;21.60;39.30
73322;DHT22;61549;37.044;22.128;2023-04-15T14:56:37;21.70;38.30
73322;DHT22;61549;37.044;22.128;2023-04-15T14:59:02;21.70;38.30
73322;DHT22;61549;37.044;22.128;2023-04-15T15:01:28;22.10;38.40
73322;DHT22;61549;37.044;22.128;2023-04-15T15:03:54;22.40;38.70
73322;DHT22;61549;37.044;22.128;2023-04-15T15:06:20;22.90;38.40
73322;DHT22;61549;37.044;22.128;2023-04-15T15:08:48;22.90;36.20
73322;DHT22;61549;37.044;22.128;2023-04-15T15:11:14;22.90;36.20
73322;DHT22;61549;37.044;22.128;2023-04-15T15:13:40;22.70;36.30
73322;DHT22;61549;37.044;22.128;2023-04-15T15:16:06;22.80;36.40
73322;DHT22;61549;37.044;22.128;2023-04-15T15:18:32;23.10;36.60
73322;DHT22;61549;37.044;22.128;2023-04-15T15:20:58;23.20;34.40
73322;DHT22;61549;37.044;22.128;2023-04-15T15:23:23;23.20;34.90
73322;DHT22;61549;37.044;22.128;2023-04-15T15:25:49;23.30;34.40
73322;DHT22;61549;37.044;22.128;2023-04-15T15:28:15;23.30;34.70
73322;DHT22;61549;37.044;22.128;2023-04-15T15:30:41;23.20;34.70
73322;DHT22;61549;37.044;22.128;2023-04-15T15:33:07;23.00;34.40
73322;DHT22;61549;37.044;22.128;2023-04-15T15:35:33;22.60;35.00
73322;DHT22;61549;37.044;22.128;2023-04-15T15:37:59;22.60;35.40
73322;DHT22;61549;37.044;22.128;2023-04-15T15:40:26;22.80;34.90
73322;DHT22;61549;37.044;22.128;2023-04-15T15:42:51;23.20;35.20
73322;DHT22;61549;37.044;22.128;2023-04-15T15:45:17;23.30;34.40
73322;DHT22;61549;37.044;22.128;2023-04-15T15:47:43;23.20;35.10